createdAt,value
2022-08-10T00:01:55.383Z,1.50
2022-08-10T00:04:25.249Z,1.30
2022-08-10T00:06:56.368Z,1.50
2022-08-10T00:09:25.955Z,1.10
2022-08-10T00:11:55.238Z,1.20
2022-08-10T00:14:24.495Z,1.40
2022-08-10T00:16:53.912Z,1.45
2022-08-10T00:19:23.247Z,1.20
2022-08-10T00:21:52.513Z,1.50
2022-08-10T00:24:23.225Z,1.20
2022-08-10T00:27:52.634Z,1.45
2022-08-10T00:29:41.874Z,1.38
2022-08-10T00:32:11.160Z,1.40
2022-08-10T00:34:40.406Z,1.30
2022-08-10T00:37:09.811Z,1.35
2022-08-10T00:39:40.509Z,1.30
2022-08-10T00:42:10.436Z,1.45
2022-08-10T00:44:40.880Z,1.20
2022-08-10T00:47:17.489Z,1.25
2022-08-10T00:50:00.782Z,1.23
2022-08-10T00:52:32.210Z,1.27
2022-08-10T00:55:03.573Z,1.48
2022-08-10T00:57:34.190Z,1.40
2022-08-10T01:00:03.598Z,1.52
2022-08-10T01:02:33.769Z,1.40
2022-08-10T01:05:05.326Z,1.40
2022-08-10T01:07:58.593Z,1.23
2022-08-10T01:10:34.290Z,1.30
2022-08-10T01:13:06.358Z,1.30
2022-08-10T01:15:38.864Z,1.23
2022-08-10T01:18:11.767Z,1.40
2022-08-10T01:20:44.339Z,1.45
2022-08-10T01:23:34.653Z,1.60
2022-08-10T01:26:30.649Z,1.70
2022-08-10T01:29:10.384Z,1.38
2022-08-10T01:31:43.676Z,1.50
2022-08-10T01:34:15.406Z,1.60
2022-08-10T01:36:50.263Z,1.48
2022-08-10T01:39:22.263Z,1.95
2022-08-10T01:41:53.290Z,1.85
2022-08-10T01:44:34.426Z,1.65
2022-08-10T01:47:24.877Z,1.40
2022-08-10T01:50:01.028Z,1.48
2022-08-10T01:52:31.641Z,1.70
2022-08-10T01:55:01.182Z,1.58
2022-08-10T01:57:33.390Z,1.63
2022-08-10T02:00:04.023Z,1.73
2022-08-10T02:02:38.503Z,1.65
2022-08-10T02:05:08.475Z,1.67
2022-08-10T02:07:38.889Z,1.70
2022-08-10T02:10:11.208Z,1.70
2022-08-10T02:12:41.967Z,1.80
2022-08-10T02:15:13.184Z,1.45
2022-08-10T02:17:59.125Z,1.58
2022-08-10T02:20:34.675Z,1.90
2022-08-10T02:23:06.613Z,1.80
2022-08-10T02:25:42.609Z,1.60
2022-08-10T02:28:27.472Z,1.90
2022-08-10T02:31:02.438Z,1.90
2022-08-10T02:33:37.312Z,1.70
2022-08-10T02:36:08.479Z,1.80
2022-08-10T02:38:58.765Z,1.80
2022-08-10T02:45:01.818Z,1.50
2022-08-10T02:45:20.128Z,1.77
2022-08-10T02:47:17.749Z,1.77
2022-08-10T02:49:51.883Z,1.70
2022-08-10T02:52:23.369Z,1.80
2022-08-10T02:54:57.476Z,1.60
2022-08-10T02:58:16.949Z,2.05
2022-08-10T03:00:31.181Z,2.17
2022-08-10T03:03:01.664Z,1.80
2022-08-10T03:05:32.516Z,1.88
2022-08-10T03:08:02.687Z,1.88
2022-08-10T03:10:34.446Z,1.70
2022-08-10T03:13:04.819Z,1.80
2022-08-10T03:15:35.216Z,1.80
2022-08-10T03:18:05.573Z,1.60
2022-08-10T03:20:40.253Z,1.90
2022-08-10T03:23:12.214Z,2.20
2022-08-10T03:25:53.833Z,2.05
2022-08-10T03:28:24.788Z,1.70
2022-08-10T03:30:54.836Z,2.20
2022-08-10T03:33:25.030Z,1.90
2022-08-10T03:36:42.356Z,1.85
2022-08-10T03:38:48.729Z,1.58
2022-08-10T03:41:18.540Z,1.80
2022-08-10T03:43:49.786Z,1.70
2022-08-10T03:46:21.047Z,1.83
2022-08-10T03:48:51.926Z,1.80
2022-08-10T03:51:24.150Z,1.83
2022-08-10T03:54:05.289Z,2.17
2022-08-10T03:56:37.870Z,1.88
2022-08-10T03:59:08.007Z,1.60
2022-08-10T04:02:43.821Z,2.10
2022-08-10T04:04:26.964Z,1.80
2022-08-10T04:06:58.438Z,1.95
2022-08-10T04:09:43.291Z,1.90
2022-08-10T04:12:23.819Z,1.73
2022-08-10T04:14:53.868Z,1.90
2022-08-10T04:18:02.875Z,2.38
2022-08-10T04:20:15.734Z,2.10
2022-08-10T04:22:47.590Z,2.33
2022-08-10T04:25:18.064Z,2.20
2022-08-10T04:27:47.477Z,2.00
2022-08-10T04:30:16.803Z,1.90
2022-08-10T04:32:50.672Z,2.10
2022-08-10T04:35:21.349Z,1.63
2022-08-10T04:37:53.587Z,1.80
2022-08-10T04:40:25.479Z,1.80
2022-08-10T04:43:10.527Z,1.80
2022-08-10T04:45:49.322Z,1.98
2022-08-10T04:48:42.967Z,2.20
2022-08-10T04:51:17.147Z,1.88
2022-08-10T04:54:06.169Z,2.25
2022-08-10T04:56:37.622Z,2.30
2022-08-10T04:59:07.803Z,2.15
2022-08-10T05:02:28.812Z,2.20
2022-08-10T05:04:35.233Z,2.53
2022-08-10T05:07:07.183Z,2.25
2022-08-10T05:10:03.787Z,2.40
2022-08-10T05:12:27.429Z,2.70
2022-08-10T05:14:56.961Z,2.42
2022-08-10T05:17:26.297Z,2.83
2022-08-10T05:20:02.975Z,2.63
2022-08-10T05:22:36.719Z,2.50
2022-08-10T05:25:08.581Z,2.25
2022-08-10T05:27:37.980Z,2.60
2022-08-10T05:30:08.342Z,2.75
2022-08-10T05:32:58.345Z,2.67
2022-08-10T05:35:27.728Z,2.42
2022-08-10T05:38:11.451Z,3.08
2022-08-10T05:40:47.543Z,2.60
2022-08-10T05:43:19.015Z,2.38
2022-08-10T05:46:19.329Z,2.50
2022-08-10T05:48:56.558Z,2.28
2022-08-10T05:51:28.061Z,2.55
2022-08-10T05:54:02.966Z,2.55
2022-08-10T05:56:56.347Z,2.15
2022-08-10T06:00:33.688Z,2.55
2022-08-10T06:02:34.099Z,2.80
2022-08-10T06:05:10.874Z,2.45
2022-08-10T06:07:41.850Z,2.20
2022-08-10T06:10:14.366Z,2.55
2022-08-10T06:13:27.092Z,2.75
2022-08-10T06:16:05.984Z,2.88
2022-08-10T06:18:35.430Z,2.53
2022-08-10T06:21:05.125Z,3.22
2022-08-10T06:23:34.725Z,3.03
2022-08-10T06:26:10.104Z,2.60
2022-08-10T06:29:01.970Z,2.78
2022-08-10T06:31:47.487Z,2.40
2022-08-10T06:34:19.985Z,2.70
2022-08-10T06:36:50.129Z,3.00
2022-08-10T06:39:36.127Z,2.80
2022-08-10T06:42:18.548Z,2.70
2022-08-10T06:44:53.547Z,2.70
2022-08-10T06:47:25.170Z,2.70
2022-08-10T06:50:00.160Z,2.25
2022-08-10T06:52:32.995Z,3.35
2022-08-10T06:55:05.355Z,2.78
2022-08-10T06:57:38.006Z,2.83
2022-08-10T07:00:10.025Z,3.10
2022-08-10T07:02:43.613Z,2.67
2022-08-10T07:05:16.448Z,2.72
2022-08-10T07:07:46.264Z,2.30
2022-08-10T07:10:18.756Z,2.65
2022-08-10T07:12:49.074Z,2.30
2022-08-10T07:15:20.369Z,2.58
2022-08-10T07:17:50.091Z,2.60
2022-08-10T07:20:20.841Z,2.30
2022-08-10T07:23:08.333Z,2.50
2022-08-10T07:25:41.697Z,2.20
2022-08-10T07:28:11.579Z,2.60
2022-08-10T07:30:43.428Z,2.22
2022-08-10T07:33:13.758Z,2.20
2022-08-10T07:35:43.860Z,2.53
2022-08-10T07:38:15.150Z,2.50
2022-08-10T07:40:45.042Z,2.20
2022-08-10T07:43:15.152Z,2.30
2022-08-10T07:45:47.135Z,2.22
2022-08-10T07:48:17.759Z,2.22
2022-08-10T07:50:48.466Z,2.42
2022-08-10T07:53:21.286Z,2.58
2022-08-10T07:56:07.607Z,2.25
2022-08-10T07:58:49.861Z,2.20
2022-08-10T08:01:26.738Z,2.42
2022-08-10T08:04:05.237Z,2.17
2022-08-10T08:06:42.744Z,2.20
2022-08-10T08:09:12.409Z,2.30
2022-08-10T08:11:43.250Z,2.05
2022-08-10T08:14:13.205Z,2.13
2022-08-10T08:16:44.811Z,2.40
2022-08-10T08:19:38.018Z,2.03
2022-08-10T08:24:05.896Z,2.20
2022-08-10T08:24:57.371Z,1.85
2022-08-10T08:27:28.243Z,2.20
2022-08-10T08:29:57.919Z,2.53
2022-08-10T08:32:29.565Z,2.50
2022-08-10T08:35:00.160Z,2.20
2022-08-10T08:38:31.708Z,2.20
2022-08-10T08:40:23.700Z,2.15
2022-08-10T08:43:11.250Z,2.10
2022-08-10T08:46:00.677Z,1.83
2022-08-10T08:48:39.823Z,2.25
2022-08-10T08:52:06.140Z,2.28
2022-08-10T08:54:11.298Z,2.30
2022-08-10T08:56:49.597Z,2.10
2022-08-10T08:59:33.340Z,1.98
2022-08-10T09:02:11.352Z,2.08
2022-08-10T09:04:55.860Z,1.90
2022-08-10T09:07:59.469Z,2.17
2022-08-10T09:10:37.386Z,2.20
2022-08-10T09:13:10.321Z,1.90
2022-08-10T09:15:42.593Z,2.30
2022-08-10T09:18:16.096Z,2.10
2022-08-10T09:20:49.998Z,1.88
2022-08-10T09:24:04.038Z,1.98
2022-08-10T09:26:17.194Z,2.00
2022-08-10T09:28:52.536Z,1.75
2022-08-10T09:31:41.807Z,1.83
2022-08-10T09:36:24.755Z,2.30
2022-08-10T09:37:40.060Z,2.08
2022-08-10T09:41:00.027Z,2.08
2022-08-10T09:43:25.016Z,2.20
2022-08-10T09:45:58.834Z,2.03
2022-08-10T09:48:32.493Z,2.00
2022-08-10T09:51:43.663Z,1.98
2022-08-10T09:54:03.810Z,1.90
2022-08-10T09:56:37.556Z,2.03
2022-08-10T09:59:26.816Z,2.00
2022-08-10T10:02:10.499Z,1.70
2022-08-10T10:04:42.973Z,1.60
2022-08-10T10:07:16.261Z,2.00
2022-08-10T10:09:52.996Z,2.05
2022-08-10T10:12:26.181Z,1.95
2022-08-10T10:15:24.365Z,2.00
2022-08-10T10:18:09.553Z,2.10
2022-08-10T10:20:41.748Z,2.40
2022-08-10T10:23:16.388Z,1.90
2022-08-10T10:25:55.440Z,2.03
2022-08-10T10:29:11.373Z,2.22
2022-08-10T10:31:29.097Z,2.05
2022-08-10T10:34:05.642Z,1.90
2022-08-10T10:36:35.387Z,2.00
2022-08-10T10:39:05.267Z,2.17
2022-08-10T10:41:55.921Z,1.75
2022-08-10T10:44:38.937Z,2.00
2022-08-10T10:47:33.863Z,1.80
2022-08-10T10:50:12.182Z,1.88
2022-08-10T10:52:53.068Z,1.80
2022-08-10T10:55:32.094Z,2.20
2022-08-10T10:58:11.409Z,2.58
2022-08-10T11:00:47.205Z,2.53
2022-08-10T11:03:47.522Z,1.92
2022-08-10T11:06:39.250Z,2.03
2022-08-10T11:10:04.863Z,1.85
2022-08-10T11:12:19.657Z,1.90
2022-08-10T11:15:04.119Z,2.00
2022-08-10T11:17:45.189Z,2.00
2022-08-10T11:20:29.023Z,1.70
2022-08-10T11:23:03.006Z,1.85
2022-08-10T11:25:32.857Z,1.90
2022-08-10T11:28:05.651Z,1.80
2022-08-10T11:30:42.402Z,1.50
2022-08-10T11:33:31.097Z,1.90
2022-08-10T11:36:05.260Z,1.55
2022-08-10T11:38:57.641Z,1.88
2022-08-10T11:42:07.823Z,1.73
2022-08-10T11:44:31.763Z,1.60
2022-08-10T11:47:05.447Z,1.60
2022-08-10T11:49:37.929Z,1.63
2022-08-10T11:52:10.648Z,1.90
2022-08-10T11:54:43.793Z,1.60
2022-08-10T11:57:13.804Z,1.48
2022-08-10T11:59:58.335Z,1.70
2022-08-10T12:02:33.903Z,1.70
2022-08-10T12:05:14.201Z,1.40
2022-08-10T12:10:10.301Z,1.45
2022-08-10T12:10:41.157Z,1.40
2022-08-10T12:13:16.710Z,1.58
2022-08-10T12:15:56.092Z,1.70
2022-08-10T12:18:32.047Z,1.40
2022-08-10T12:21:05.270Z,2.10
2022-08-10T12:23:41.355Z,1.77
2022-08-10T12:26:16.177Z,1.42
2022-08-10T12:29:04.840Z,1.60
2022-08-10T12:31:41.652Z,1.60
2022-08-10T12:34:21.665Z,1.60
2022-08-10T12:36:58.860Z,1.65
2022-08-10T12:39:32.457Z,1.63
2022-08-10T12:42:06.735Z,1.40
2022-08-10T12:44:42.750Z,1.67
2022-08-10T12:47:23.374Z,1.60
2022-08-10T12:50:29.771Z,1.52
2022-08-10T12:52:58.260Z,1.30
2022-08-10T12:55:30.023Z,1.40
2022-08-10T12:58:01.078Z,1.40
2022-08-10T13:00:44.850Z,1.33
2022-08-10T13:04:21.606Z,1.33
2022-08-10T13:06:18.536Z,1.45
2022-08-10T13:09:06.706Z,1.38
2022-08-10T13:12:35.847Z,1.48
2022-08-10T13:14:39.015Z,1.42
2022-08-10T13:17:21.083Z,1.52
2022-08-10T13:19:56.523Z,1.38
2022-08-10T13:22:31.858Z,1.50
2022-08-10T13:25:05.354Z,1.60
2022-08-10T13:27:59.856Z,1.70
2022-08-10T13:30:37.670Z,1.40
2022-08-10T13:33:08.186Z,1.52
2022-08-10T13:35:37.899Z,1.40
2022-08-10T13:38:11.326Z,1.50
2022-08-10T13:40:41.013Z,1.40
2022-08-10T13:43:10.975Z,1.48
2022-08-10T13:45:47.867Z,1.40
2022-08-10T13:48:20.684Z,1.55
2022-08-10T13:50:52.101Z,1.30
2022-08-10T13:53:23.020Z,2.30
2022-08-10T13:55:56.615Z,1.63
2022-08-10T13:58:31.697Z,1.70
2022-08-10T14:01:01.667Z,1.70
2022-08-10T14:03:37.574Z,1.45
2022-08-10T14:06:08.867Z,1.33
2022-08-10T14:08:41.429Z,1.63
2022-08-10T14:11:14.917Z,1.88
2022-08-10T14:13:46.169Z,1.55
2022-08-10T14:16:15.931Z,1.50
2022-08-10T14:18:46.160Z,1.70
2022-08-10T14:21:16.364Z,1.50
2022-08-10T14:23:52.452Z,1.35
2022-08-10T14:26:24.320Z,1.42
2022-08-10T14:28:55.327Z,1.60
2022-08-10T14:31:27.602Z,1.70
2022-08-10T14:33:59.071Z,1.30
2022-08-10T14:36:32.584Z,1.85
2022-08-10T14:39:04.689Z,1.50
2022-08-10T14:42:02.917Z,1.52
2022-08-10T14:44:24.640Z,1.30
2022-08-10T14:46:56.444Z,1.63
2022-08-10T14:49:27.218Z,1.73
2022-08-10T14:52:02.511Z,1.67
2022-08-10T14:54:35.109Z,1.50
2022-08-10T14:57:11.250Z,1.55
2022-08-10T15:00:24.696Z,1.52
2022-08-10T15:02:52.991Z,1.60
2022-08-10T15:05:24.111Z,1.55
2022-08-10T15:08:06.069Z,1.30
2022-08-10T15:10:37.696Z,1.60
2022-08-10T15:13:34.757Z,1.52
2022-08-10T15:16:12.594Z,1.60
2022-08-10T15:18:57.988Z,1.58
2022-08-10T15:21:40.749Z,1.58
2022-08-10T15:24:38.334Z,1.60
2022-08-10T15:27:11.509Z,1.50
2022-08-10T15:29:56.577Z,1.60
2022-08-10T15:32:55.874Z,1.70
2022-08-10T15:35:46.011Z,1.40
2022-08-10T15:38:19.258Z,1.73
2022-08-10T15:40:53.580Z,1.60
2022-08-10T15:43:27.628Z,1.60
2022-08-10T15:46:15.010Z,1.40
2022-08-10T15:48:48.616Z,1.60
2022-08-10T15:51:23.162Z,1.73
2022-08-10T15:54:04.627Z,1.70
2022-08-10T15:56:42.527Z,1.50
2022-08-10T15:59:17.466Z,1.70
2022-08-10T16:02:14.715Z,1.65
2022-08-10T16:04:49.945Z,1.70
2022-08-10T16:07:46.137Z,1.40
2022-08-10T16:10:25.812Z,1.60
2022-08-10T16:13:00.996Z,1.50
2022-08-10T16:15:33.651Z,1.85
2022-08-10T16:18:05.998Z,1.60
2022-08-10T16:20:52.499Z,1.45
2022-08-10T16:23:27.211Z,1.42
2022-08-10T16:26:14.701Z,1.90
2022-08-10T16:28:49.613Z,1.70
2022-08-10T16:31:23.423Z,1.80
2022-08-10T16:33:55.430Z,1.40
2022-08-10T16:36:33.548Z,1.40
2022-08-10T16:39:04.047Z,1.52
2022-08-10T16:42:03.910Z,1.35
2022-08-10T16:44:29.621Z,1.40
2022-08-10T16:47:02.699Z,1.40
2022-08-10T16:49:38.179Z,1.75
2022-08-10T16:52:09.382Z,1.42
2022-08-10T16:54:41.598Z,1.35
2022-08-10T16:57:12.527Z,1.35
2022-08-10T16:59:44.226Z,1.48
2022-08-10T17:02:18.956Z,1.40
2022-08-10T17:04:50.823Z,1.50
2022-08-10T17:07:26.155Z,1.67
2022-08-10T17:10:07.950Z,1.65
2022-08-10T17:12:40.518Z,1.45
2022-08-10T17:15:11.715Z,1.50
2022-08-10T17:17:47.773Z,1.50
2022-08-10T17:20:31.767Z,1.55
2022-08-10T17:23:06.582Z,1.27
2022-08-10T17:25:48.927Z,1.30
2022-08-10T17:28:36.057Z,1.55
2022-08-10T17:31:24.185Z,1.42
2022-08-10T17:34:09.722Z,1.70
2022-08-10T17:36:40.085Z,1.30
2022-08-10T17:39:14.061Z,1.60
2022-08-10T17:41:46.213Z,1.38
2022-08-10T17:44:17.562Z,1.60
2022-08-10T17:46:47.816Z,1.45
2022-08-10T17:49:20.857Z,1.40
2022-08-10T17:51:54.564Z,1.60
2022-08-10T17:54:28.519Z,1.58
2022-08-10T17:57:00.913Z,1.40
2022-08-10T17:59:32.717Z,1.48
2022-08-10T18:02:06.516Z,1.70
2022-08-10T18:04:42.135Z,1.40
2022-08-10T18:07:13.617Z,1.42
2022-08-10T18:09:49.785Z,1.58
2022-08-10T18:12:32.490Z,1.60
2022-08-10T18:15:13.223Z,1.42
2022-08-10T18:17:47.429Z,1.50
2022-08-10T18:20:28.085Z,1.55
2022-08-10T18:23:00.403Z,1.50
2022-08-10T18:25:34.128Z,1.42
2022-08-10T18:28:06.327Z,1.50
2022-08-10T18:30:45.401Z,1.50
2022-08-10T18:33:17.188Z,1.63
2022-08-10T18:35:48.459Z,1.67
2022-08-10T18:38:19.113Z,1.60
2022-08-10T18:40:54.534Z,1.98
2022-08-10T18:44:05.076Z,1.60
2022-08-10T18:46:24.718Z,1.60
2022-08-10T18:48:56.536Z,2.00
2022-08-10T18:51:35.715Z,1.38
2022-08-10T18:54:31.401Z,1.35
2022-08-10T18:57:29.139Z,1.73
2022-08-10T19:00:09.362Z,1.58
2022-08-10T19:03:31.436Z,1.60
2022-08-10T19:06:17.468Z,1.50
2022-08-10T19:09:45.600Z,1.50
2022-08-10T19:12:30.139Z,1.63
2022-08-10T19:15:10.549Z,1.60
2022-08-10T19:18:06.299Z,1.85
2022-08-10T19:20:42.619Z,1.90
2022-08-10T19:23:23.334Z,1.60
2022-08-10T19:26:37.830Z,1.55
2022-08-10T19:29:00.135Z,1.60
2022-08-10T19:31:44.469Z,1.60
2022-08-10T19:34:28.709Z,1.60
2022-08-10T19:37:34.423Z,1.70
2022-08-10T19:40:44.279Z,1.83
2022-08-10T19:43:30.744Z,1.95
2022-08-10T19:46:17.754Z,1.58
2022-08-10T19:48:59.926Z,1.60
2022-08-10T19:51:37.889Z,2.15
2022-08-10T19:54:14.171Z,1.65
2022-08-10T19:57:02.146Z,1.35
2022-08-10T20:00:19.126Z,1.50
2022-08-10T20:02:33.563Z,1.63
2022-08-10T20:05:11.248Z,1.33
2022-08-10T20:07:48.437Z,1.40
2022-08-10T20:10:24.953Z,1.50
2022-08-10T20:13:03.935Z,1.65
2022-08-10T20:15:42.120Z,1.73
2022-08-10T20:18:20.569Z,1.45
2022-08-10T20:20:53.115Z,1.67
2022-08-10T20:23:26.591Z,1.58
2022-08-10T20:26:02.269Z,1.52
2022-08-10T20:28:41.508Z,1.58
2022-08-10T20:31:21.088Z,1.48
2022-08-10T20:34:00.904Z,1.50
2022-08-10T20:36:33.926Z,1.35
2022-08-10T20:39:14.846Z,1.55
2022-08-10T20:41:56.382Z,1.58
2022-08-10T20:44:40.639Z,1.50
2022-08-10T20:47:18.073Z,1.42
2022-08-10T20:49:57.613Z,1.60
2022-08-10T20:52:27.682Z,1.42
2022-08-10T20:55:01.839Z,1.30
2022-08-10T20:57:55.608Z,1.52
2022-08-10T21:00:36.502Z,1.40
2022-08-10T21:03:35.130Z,1.27
2022-08-10T21:06:43.855Z,1.40
2022-08-10T21:09:42.509Z,1.05
2022-08-10T21:12:29.506Z,1.52
2022-08-10T21:15:22.119Z,1.27
2022-08-10T21:18:05.175Z,1.33
2022-08-10T21:20:54.078Z,1.50
2022-08-10T21:25:41.792Z,1.50
2022-08-10T21:26:18.692Z,1.75
2022-08-10T21:29:21.439Z,1.58
2022-08-10T21:32:06.917Z,1.33
2022-08-10T21:35:08.578Z,1.40
2022-08-10T21:37:56.884Z,1.40
2022-08-10T21:41:18.005Z,1.40
2022-08-10T21:44:13.420Z,1.70
2022-08-10T21:47:39.455Z,1.50
2022-08-10T21:50:27.992Z,1.35
2022-08-10T21:56:42.029Z,1.40
2022-08-10T21:59:35.249Z,1.40
2022-08-10T22:02:28.044Z,1.73
2022-08-10T22:05:18.308Z,1.50
2022-08-10T22:08:12.289Z,1.50
2022-08-10T22:11:05.939Z,1.65
2022-08-10T22:13:56.710Z,1.35
2022-08-10T22:16:50.655Z,1.42
2022-08-10T22:19:38.289Z,1.65
2022-08-10T22:22:28.573Z,1.40
2022-08-10T22:25:29.328Z,1.35
2022-08-10T22:28:18.238Z,1.30
2022-08-10T22:31:25.493Z,1.40
2022-08-10T22:34:26.357Z,1.70
2022-08-10T22:37:26.860Z,1.88
2022-08-10T22:40:22.252Z,1.50
2022-08-10T22:43:13.216Z,1.50
2022-08-10T22:46:09.039Z,1.85
2022-08-10T22:49:02.589Z,1.92
2022-08-10T22:51:52.281Z,1.90
2022-08-10T22:54:47.155Z,1.50
2022-08-10T22:57:35.490Z,1.83
2022-08-10T23:00:18.083Z,1.75
2022-08-10T23:02:54.539Z,1.80
2022-08-10T23:05:32.803Z,1.95
2022-08-10T23:08:09.395Z,1.95
2022-08-10T23:10:43.543Z,1.88
2022-08-10T23:13:29.448Z,1.85
2022-08-10T23:16:26.309Z,2.05
2022-08-10T23:19:11.114Z,2.40
2022-08-10T23:22:05.077Z,2.08
2022-08-10T23:24:39.176Z,1.90
2022-08-10T23:27:13.132Z,2.00
2022-08-10T23:30:03.806Z,1.90
2022-08-10T23:32:42.424Z,2.15
2022-08-10T23:36:31.178Z,2.30
2022-08-10T23:38:07.661Z,2.35
2022-08-10T23:40:37.885Z,2.30
2022-08-10T23:43:08.365Z,2.20
2022-08-10T23:45:53.792Z,2.00
2022-08-10T23:48:27.025Z,1.80
2022-08-10T23:51:00.334Z,2.10
2022-08-10T23:53:33.052Z,2.25
2022-08-10T23:56:06.879Z,2.20
2022-08-10T23:58:40.201Z,2.20
